createdAt,value
2024-01-05T00:00:10.441Z,521.00
2024-01-05T00:01:10.455Z,520.00
2024-01-05T00:02:13.656Z,520.00
2024-01-05T00:03:10.485Z,521.00
2024-01-05T00:04:10.527Z,523.00
2024-01-05T00:05:10.460Z,525.00
2024-01-05T00:06:10.511Z,527.00
2024-01-05T00:07:10.557Z,526.00
2024-01-05T00:08:10.439Z,527.00
2024-01-05T00:09:10.470Z,527.00
2024-01-05T00:10:10.462Z,526.00
2024-01-05T00:11:10.444Z,526.00
2024-01-05T00:12:10.503Z,525.00
2024-01-05T00:13:10.452Z,527.00
2024-01-05T00:14:10.447Z,527.00
2024-01-05T00:15:10.539Z,529.00
2024-01-05T00:16:10.465Z,527.00
2024-01-05T00:17:10.457Z,525.00
2024-01-05T00:18:10.531Z,524.00
2024-01-05T00:19:10.571Z,523.00
2024-01-05T00:20:10.484Z,524.00
2024-01-05T00:21:10.487Z,523.00
2024-01-05T00:22:10.458Z,522.00
2024-01-05T00:23:10.463Z,522.00
2024-01-05T00:24:10.503Z,522.00
2024-01-05T00:25:10.488Z,523.00
2024-01-05T00:26:10.465Z,523.00
2024-01-05T00:27:10.514Z,523.00
2024-01-05T00:28:10.501Z,526.00
2024-01-05T00:29:10.468Z,526.00
2024-01-05T00:30:10.538Z,526.00
2024-01-05T00:31:10.571Z,529.00
2024-01-05T00:32:10.468Z,531.00
2024-01-05T00:33:10.614Z,531.00
2024-01-05T00:34:10.646Z,531.00
2024-01-05T00:35:10.507Z,529.00
2024-01-05T00:36:10.488Z,527.00
2024-01-05T00:37:10.474Z,527.00
2024-01-05T00:38:10.472Z,525.00
2024-01-05T00:39:10.528Z,525.00
2024-01-05T00:40:10.482Z,526.00
2024-01-05T00:41:10.482Z,526.00
2024-01-05T00:42:10.518Z,526.00
2024-01-05T00:43:10.484Z,527.00
2024-01-05T00:44:10.482Z,526.00
2024-01-05T00:45:10.580Z,526.00
2024-01-05T00:46:10.514Z,524.00
2024-01-05T00:47:10.483Z,522.00
2024-01-05T00:48:10.697Z,523.00
2024-01-05T00:49:10.573Z,525.00
2024-01-05T00:50:10.515Z,524.00
2024-01-05T00:51:10.534Z,524.00
2024-01-05T00:52:10.496Z,526.00
2024-01-05T00:53:10.493Z,527.00
2024-01-05T00:54:10.544Z,528.00
2024-01-05T00:55:10.500Z,529.00
2024-01-05T00:56:10.506Z,529.00
2024-01-05T00:57:11.828Z,528.00
2024-01-05T00:58:10.546Z,530.00
2024-01-05T00:59:10.566Z,531.00
2024-01-05T01:00:10.661Z,528.00
2024-01-05T01:01:10.708Z,526.00
2024-01-05T01:02:10.673Z,524.00
2024-01-05T01:03:10.758Z,523.00
2024-01-05T01:04:10.916Z,523.00
2024-01-05T01:05:10.822Z,523.00
2024-01-05T01:06:10.835Z,524.00
2024-01-05T01:07:10.873Z,524.00
2024-01-05T01:08:10.861Z,524.00
2024-01-05T01:09:10.931Z,525.00
2024-01-05T01:10:10.959Z,528.00
2024-01-05T01:11:10.952Z,527.00
2024-01-05T01:12:11.038Z,526.00
2024-01-05T01:13:11.021Z,528.00
2024-01-05T01:14:11.061Z,528.00
2024-01-05T01:15:11.198Z,528.00
2024-01-05T01:16:11.124Z,528.00
2024-01-05T01:17:11.151Z,528.00
2024-01-05T01:18:11.285Z,530.00
2024-01-05T01:19:11.280Z,531.00
2024-01-05T01:20:11.244Z,531.00
2024-01-05T01:21:11.300Z,531.00
2024-01-05T01:22:11.287Z,530.00
2024-01-05T01:23:11.337Z,530.00
2024-01-05T01:24:11.351Z,530.00
2024-01-05T01:25:11.402Z,528.00
2024-01-05T01:26:11.425Z,527.00
2024-01-05T01:27:11.475Z,527.00
2024-01-05T01:28:11.498Z,527.00
2024-01-05T01:29:11.514Z,528.00
2024-01-05T01:30:11.601Z,526.00
2024-01-05T01:31:11.653Z,526.00
2024-01-05T01:32:11.631Z,527.00
2024-01-05T01:33:11.736Z,526.00
2024-01-05T01:34:11.846Z,528.00
2024-01-05T01:35:11.730Z,530.00
2024-01-05T01:36:11.789Z,530.00
2024-01-05T01:37:11.798Z,530.00
2024-01-05T01:38:11.845Z,528.00
2024-01-05T01:39:11.859Z,529.00
2024-01-05T01:40:11.889Z,528.00
2024-01-05T01:41:11.931Z,526.00
2024-01-05T01:42:12.067Z,527.00
2024-01-05T01:43:12.074Z,526.00
2024-01-05T01:44:12.017Z,524.00
2024-01-05T01:45:12.084Z,524.00
2024-01-05T01:46:12.068Z,525.00
2024-01-05T01:47:12.090Z,522.00
2024-01-05T01:48:12.216Z,522.00
2024-01-05T01:49:12.299Z,522.00
2024-01-05T01:50:12.183Z,523.00
2024-01-05T01:51:12.244Z,523.00
2024-01-05T01:52:12.234Z,521.00
2024-01-05T01:53:12.266Z,520.00
2024-01-05T01:54:12.343Z,520.00
2024-01-05T01:55:12.303Z,522.00
2024-01-05T01:56:12.331Z,522.00
2024-01-05T01:57:12.391Z,521.00
2024-01-05T01:58:12.401Z,521.00
2024-01-05T01:59:12.417Z,523.00
2024-01-05T02:00:12.498Z,522.00
2024-01-05T02:01:12.570Z,524.00
2024-01-05T02:02:12.504Z,526.00
2024-01-05T02:03:12.661Z,527.00
2024-01-05T02:04:12.642Z,528.00
2024-01-05T02:05:12.651Z,527.00
2024-01-05T02:06:12.651Z,527.00
2024-01-05T02:07:12.643Z,529.00
2024-01-05T02:08:12.659Z,530.00
2024-01-05T02:09:12.735Z,530.00
2024-01-05T02:10:12.706Z,534.00
2024-01-05T02:11:12.744Z,535.00
2024-01-05T02:12:12.819Z,536.00
2024-01-05T02:13:12.807Z,534.00
2024-01-05T02:15:01.651Z,520.00
2024-01-05T02:16:01.602Z,518.00
2024-01-05T02:17:01.601Z,522.00
2024-01-05T02:18:01.716Z,525.00
2024-01-05T02:19:01.756Z,524.00
2024-01-05T02:20:01.629Z,524.00
2024-01-05T02:21:01.637Z,520.00
2024-01-05T02:22:01.633Z,520.00
2024-01-05T02:23:01.631Z,520.00
2024-01-05T02:24:01.804Z,522.00
2024-01-05T02:25:01.701Z,522.00
2024-01-05T02:26:01.771Z,519.00
2024-01-05T02:27:01.715Z,517.00
2024-01-05T02:28:01.610Z,517.00
2024-01-05T02:29:01.617Z,518.00
2024-01-05T02:30:01.663Z,517.00
2024-01-05T02:31:01.717Z,515.00
2024-01-05T02:32:01.612Z,515.00
2024-01-05T02:33:01.770Z,516.00
2024-01-05T02:34:01.741Z,517.00
2024-01-05T02:35:01.700Z,517.00
2024-01-05T02:36:01.678Z,519.00
2024-01-05T02:37:01.633Z,523.00
2024-01-05T02:38:01.632Z,525.00
2024-01-05T02:39:01.678Z,522.00
2024-01-05T02:40:01.663Z,524.00
2024-01-05T02:41:01.636Z,526.00
2024-01-05T02:42:01.718Z,525.00
2024-01-05T02:43:01.638Z,526.00
2024-01-05T02:44:01.636Z,525.00
2024-01-05T02:45:01.718Z,525.00
2024-01-05T02:46:01.645Z,523.00
2024-01-05T02:47:01.638Z,525.00
2024-01-05T02:48:01.928Z,523.00
2024-01-05T02:49:01.918Z,527.00
2024-01-05T02:50:01.648Z,528.00
2024-01-05T02:51:01.764Z,529.00
2024-01-05T02:52:01.633Z,529.00
2024-01-05T02:53:01.642Z,530.00
2024-01-05T02:54:01.716Z,526.00
2024-01-05T02:55:01.671Z,525.00
2024-01-05T02:56:01.654Z,527.00
2024-01-05T02:57:01.673Z,526.00
2024-01-05T02:58:01.732Z,527.00
2024-01-05T02:59:01.721Z,528.00
2024-01-05T03:00:01.779Z,527.00
2024-01-05T03:01:01.801Z,529.00
2024-01-05T03:02:01.700Z,530.00
2024-01-05T03:03:01.806Z,530.00
2024-01-05T03:04:01.933Z,528.00
2024-01-05T03:05:01.785Z,530.00
2024-01-05T03:06:01.795Z,527.00
2024-01-05T03:07:01.717Z,527.00
2024-01-05T03:08:01.726Z,527.00
2024-01-05T03:09:01.788Z,527.00
2024-01-05T03:10:01.779Z,527.00
2024-01-05T03:11:01.764Z,527.00
2024-01-05T03:12:01.839Z,524.00
2024-01-05T03:13:01.872Z,525.00
2024-01-05T03:14:01.819Z,525.00
2024-01-05T03:15:01.858Z,526.00
2024-01-05T03:16:01.869Z,526.00
2024-01-05T03:17:01.780Z,527.00
2024-01-05T03:18:02.053Z,526.00
2024-01-05T03:19:02.103Z,524.00
2024-01-05T03:20:02.029Z,523.00
2024-01-05T03:21:01.934Z,523.00
2024-01-05T03:22:01.946Z,522.00
2024-01-05T03:23:01.954Z,521.00
2024-01-05T03:24:01.982Z,521.00
2024-01-05T03:25:01.990Z,522.00
2024-01-05T03:26:02.015Z,523.00
2024-01-05T03:27:02.077Z,522.00
2024-01-05T03:28:02.066Z,525.00
2024-01-05T03:29:02.083Z,526.00
2024-01-05T03:30:02.208Z,525.00
2024-01-05T03:31:02.285Z,526.00
2024-01-05T03:32:02.167Z,526.00
2024-01-05T03:33:02.506Z,525.00
2024-01-05T03:34:02.478Z,527.00
2024-01-05T03:35:02.241Z,525.00
2024-01-05T03:36:02.335Z,526.00
2024-01-05T03:37:02.317Z,529.00
2024-01-05T03:38:02.357Z,528.00
2024-01-05T03:39:02.415Z,526.00
2024-01-05T03:40:02.399Z,526.00
2024-01-05T03:41:02.456Z,526.00
2024-01-05T03:42:02.496Z,524.00
2024-01-05T03:43:02.459Z,523.00
2024-01-05T03:44:02.509Z,524.00
2024-01-05T03:45:02.636Z,524.00
2024-01-05T03:46:02.589Z,525.00
2024-01-05T03:47:02.593Z,525.00
2024-01-05T03:48:02.779Z,524.00
2024-01-05T03:49:02.790Z,525.00
2024-01-05T03:50:02.797Z,526.00
2024-01-05T03:51:02.737Z,526.00
2024-01-05T03:52:02.710Z,525.00
2024-01-05T03:53:02.744Z,523.00
2024-01-05T03:54:02.859Z,521.00
2024-01-05T03:55:02.877Z,519.00
2024-01-05T03:56:02.839Z,521.00
2024-01-05T03:57:02.894Z,521.00
2024-01-05T03:58:02.906Z,520.00
2024-01-05T03:59:02.938Z,519.00
2024-01-05T04:00:03.085Z,517.00
2024-01-05T04:01:03.292Z,517.00
2024-01-05T04:02:03.042Z,519.00
2024-01-05T04:03:03.154Z,519.00
2024-01-05T04:04:03.275Z,519.00
2024-01-05T04:05:03.172Z,520.00
2024-01-05T04:06:03.232Z,522.00
2024-01-05T04:07:03.198Z,523.00
2024-01-05T04:08:03.220Z,525.00
2024-01-05T04:09:03.269Z,525.00
2024-01-05T04:10:03.281Z,525.00
2024-01-05T04:11:03.304Z,522.00
2024-01-05T04:12:03.356Z,522.00
2024-01-05T04:13:03.358Z,522.00
2024-01-05T04:14:03.408Z,523.00
2024-01-05T04:15:03.451Z,523.00
2024-01-05T04:16:03.463Z,524.00
2024-01-05T04:17:03.497Z,524.00
2024-01-05T04:18:03.703Z,523.00
2024-01-05T04:19:03.747Z,524.00
2024-01-05T04:20:03.579Z,524.00
2024-01-05T04:21:03.672Z,523.00
2024-01-05T04:22:03.655Z,525.00
2024-01-05T04:23:03.667Z,523.00
2024-01-05T04:24:03.772Z,522.00
2024-01-05T04:25:03.766Z,520.00
2024-01-05T04:26:03.801Z,520.00
2024-01-05T04:27:03.828Z,521.00
2024-01-05T04:28:03.835Z,522.00
2024-01-05T04:29:03.878Z,522.00
2024-01-05T04:30:04.034Z,522.00
2024-01-05T04:31:03.950Z,521.00
2024-01-05T04:32:03.939Z,522.00
2024-01-05T04:33:04.079Z,522.00
2024-01-05T04:34:11.494Z,527.00
2024-01-05T04:35:11.397Z,524.00
2024-01-05T04:36:11.484Z,524.00
2024-01-05T04:37:11.408Z,526.00
2024-01-05T04:38:11.401Z,526.00
2024-01-05T04:39:11.475Z,529.00
2024-01-05T04:40:11.419Z,527.00
2024-01-05T04:41:11.419Z,528.00
2024-01-05T04:42:11.428Z,527.00
2024-01-05T04:43:11.447Z,527.00
2024-01-05T04:44:11.410Z,525.00
2024-01-05T04:45:11.475Z,523.00
2024-01-05T04:46:11.472Z,523.00
2024-01-05T04:47:11.518Z,522.00
2024-01-05T04:48:11.809Z,521.00
2024-01-05T04:49:11.630Z,521.00
2024-01-05T04:50:11.599Z,519.00
2024-01-05T04:51:11.648Z,519.00
2024-01-05T04:52:11.662Z,521.00
2024-01-05T04:53:11.701Z,521.00
2024-01-05T04:54:12.571Z,521.00
2024-01-05T04:55:11.748Z,519.00
2024-01-05T04:56:11.791Z,517.00
2024-01-05T04:57:11.820Z,515.00
2024-01-05T04:58:11.849Z,515.00
2024-01-05T04:59:11.887Z,516.00
2024-01-05T05:00:11.918Z,515.00
2024-01-05T05:01:11.959Z,516.00
2024-01-05T05:02:11.952Z,519.00
2024-01-05T05:03:12.070Z,520.00
2024-01-05T05:04:12.057Z,521.00
2024-01-05T05:05:12.101Z,521.00
2024-01-05T05:06:12.131Z,524.00
2024-01-05T05:07:12.108Z,527.00
2024-01-05T05:08:12.146Z,527.00
2024-01-05T05:09:12.259Z,527.00
2024-01-05T05:10:12.204Z,526.00
2024-01-05T05:11:12.223Z,526.00
2024-01-05T05:12:12.278Z,526.00
2024-01-05T05:13:12.303Z,526.00
2024-01-05T05:14:12.433Z,527.00
2024-01-05T05:15:12.415Z,529.00
2024-01-05T05:16:12.361Z,525.00
2024-01-05T05:17:12.389Z,523.00
2024-01-05T05:18:12.540Z,522.00
2024-01-05T05:19:12.658Z,520.00
2024-01-05T05:20:12.497Z,520.00
2024-01-05T05:21:12.551Z,521.00
2024-01-05T05:22:12.540Z,523.00
2024-01-05T05:23:12.618Z,523.00
2024-01-05T05:24:12.654Z,521.00
2024-01-05T05:25:12.637Z,520.00
2024-01-05T05:26:12.686Z,520.00
2024-01-05T05:27:12.724Z,522.00
2024-01-05T05:28:12.743Z,525.00
2024-01-05T05:29:12.782Z,525.00
2024-01-05T05:30:12.927Z,527.00
2024-01-05T05:31:12.867Z,528.00
2024-01-05T05:32:12.862Z,529.00
2024-01-05T05:33:12.961Z,529.00
2024-01-05T05:34:12.973Z,528.00
2024-01-05T05:35:12.953Z,528.00
2024-01-05T05:36:13.045Z,525.00
2024-01-05T05:37:13.017Z,525.00
2024-01-05T05:38:13.063Z,524.00
2024-01-05T05:39:13.092Z,524.00
2024-01-05T05:40:13.117Z,525.00
2024-01-05T05:41:13.133Z,526.00
2024-01-05T05:42:13.203Z,524.00
2024-01-05T05:43:13.211Z,523.00
2024-01-05T05:44:13.192Z,523.00
2024-01-05T05:45:13.310Z,522.00
2024-01-05T05:46:13.260Z,520.00
2024-01-05T05:47:13.265Z,519.00
2024-01-05T05:48:13.504Z,517.00
2024-01-05T05:49:13.427Z,519.00
2024-01-05T05:50:13.357Z,518.00
2024-01-05T05:51:13.409Z,519.00
2024-01-05T05:52:13.390Z,516.00
2024-01-05T05:53:13.411Z,516.00
2024-01-05T05:54:13.502Z,516.00
2024-01-05T05:55:13.507Z,512.00
2024-01-05T05:56:13.532Z,512.00
2024-01-05T05:57:13.637Z,511.00
2024-01-05T05:58:13.561Z,512.00
2024-01-05T05:59:13.636Z,511.00
2024-01-05T06:00:13.669Z,512.00
2024-01-05T06:01:13.653Z,511.00
2024-01-05T06:02:13.664Z,510.00
2024-01-05T06:03:14.737Z,510.00
2024-01-05T06:04:13.798Z,509.00
2024-01-05T06:05:13.739Z,507.00
2024-01-05T06:06:13.954Z,510.00
2024-01-05T06:07:13.813Z,509.00
2024-01-05T06:08:13.802Z,507.00
2024-01-05T06:09:13.861Z,507.00
2024-01-05T06:10:13.859Z,506.00
2024-01-05T06:11:13.924Z,510.00
2024-01-05T06:12:13.999Z,511.00
2024-01-05T06:13:13.936Z,510.00
2024-01-05T06:14:13.963Z,509.00
2024-01-05T06:15:14.036Z,512.00
2024-01-05T06:16:14.035Z,511.00
2024-01-05T06:17:14.070Z,512.00
2024-01-05T06:18:14.244Z,516.00
2024-01-05T06:19:14.263Z,516.00
2024-01-05T06:20:14.144Z,516.00
2024-01-05T06:21:14.269Z,515.00
2024-01-05T06:22:14.219Z,515.00
2024-01-05T06:23:16.655Z,516.00
2024-01-05T06:24:14.288Z,517.00
2024-01-05T06:25:14.267Z,517.00
2024-01-05T06:26:14.239Z,515.00
2024-01-05T06:27:21.549Z,513.00
2024-01-05T06:28:15.358Z,513.00
2024-01-05T06:29:14.257Z,514.00
2024-01-05T06:30:14.423Z,515.00
2024-01-05T06:31:14.314Z,515.00
2024-01-05T06:32:14.256Z,515.00
2024-01-05T06:33:14.402Z,516.00
2024-01-05T06:34:14.325Z,514.00
2024-01-05T06:35:14.251Z,512.00
2024-01-05T06:36:14.321Z,511.00
2024-01-05T06:37:14.287Z,511.00
2024-01-05T06:38:14.257Z,510.00
2024-01-05T06:39:14.317Z,511.00
2024-01-05T06:40:14.284Z,512.00
2024-01-05T06:41:14.267Z,511.00
2024-01-05T06:42:14.314Z,511.00
2024-01-05T06:43:14.256Z,511.00
2024-01-05T06:44:14.274Z,511.00
2024-01-05T06:45:14.293Z,509.00
2024-01-05T06:46:14.271Z,508.00
2024-01-05T06:47:14.275Z,510.00
2024-01-05T06:48:14.426Z,508.00
2024-01-05T06:49:14.471Z,508.00
2024-01-05T06:50:14.539Z,507.00
2024-01-05T06:51:14.420Z,507.00
2024-01-05T06:52:14.405Z,509.00
2024-01-05T06:53:14.390Z,509.00
2024-01-05T06:54:14.467Z,510.00
2024-01-05T06:55:14.414Z,511.00
2024-01-05T06:56:14.460Z,510.00
2024-01-05T06:57:14.495Z,509.00
2024-01-05T06:58:14.482Z,508.00
2024-01-05T06:59:14.488Z,509.00
2024-01-05T07:00:14.559Z,508.00
2024-01-05T07:01:14.576Z,510.00
2024-01-05T07:02:14.593Z,510.00
2024-01-05T07:03:14.685Z,512.00
2024-01-05T07:04:14.661Z,512.00
2024-01-05T07:05:14.740Z,511.00
2024-01-05T07:06:14.735Z,510.00
2024-01-05T07:07:16.974Z,511.00
2024-01-05T07:08:14.872Z,510.00
2024-01-05T07:09:14.922Z,511.00
2024-01-05T07:10:14.911Z,510.00
2024-01-05T07:11:14.921Z,509.00
2024-01-05T07:12:14.961Z,508.00
2024-01-05T07:13:14.984Z,507.00
2024-01-05T07:14:15.042Z,507.00
2024-01-05T07:15:15.106Z,505.00
2024-01-05T07:16:15.095Z,504.00
2024-01-05T07:17:15.172Z,504.00
2024-01-05T07:18:15.352Z,503.00
2024-01-05T07:19:15.322Z,506.00
2024-01-05T07:20:15.227Z,507.00
2024-01-05T07:21:15.377Z,507.00
2024-01-05T07:22:15.283Z,507.00
2024-01-05T07:23:15.332Z,507.00
2024-01-05T07:24:15.401Z,507.00
2024-01-05T07:25:15.389Z,506.00
2024-01-05T07:26:15.449Z,507.00
2024-01-05T07:27:15.503Z,510.00
2024-01-05T07:28:15.496Z,508.00
2024-01-05T07:29:15.538Z,508.00
2024-01-05T07:30:15.686Z,509.00
2024-01-05T07:31:15.647Z,508.00
2024-01-05T07:32:15.656Z,507.00
2024-01-05T07:33:15.788Z,508.00
2024-01-05T07:34:15.751Z,507.00
2024-01-05T07:35:15.729Z,504.00
2024-01-05T07:36:15.769Z,505.00
2024-01-05T07:37:15.804Z,503.00
2024-01-05T07:38:15.827Z,503.00
2024-01-05T07:39:15.867Z,506.00
2024-01-05T07:40:15.879Z,505.00
2024-01-05T07:41:15.920Z,506.00
2024-01-05T07:42:15.956Z,505.00
2024-01-05T07:43:15.980Z,506.00
2024-01-05T07:44:16.020Z,507.00
2024-01-05T07:45:16.099Z,507.00
2024-01-05T07:46:16.091Z,505.00
2024-01-05T07:47:16.126Z,504.00
2024-01-05T07:48:16.211Z,506.00
2024-01-05T07:49:16.293Z,506.00
2024-01-05T07:50:16.229Z,508.00
2024-01-05T07:51:16.258Z,511.00
2024-01-05T07:52:16.284Z,511.00
2024-01-05T07:53:16.320Z,509.00
2024-01-05T07:54:16.364Z,510.00
2024-01-05T07:55:16.388Z,512.00
2024-01-05T07:56:16.417Z,514.00
2024-01-05T07:57:16.516Z,511.00
2024-01-05T07:58:16.480Z,510.00
2024-01-05T07:59:16.517Z,509.00
2024-01-05T08:00:16.564Z,509.00
2024-01-05T08:01:16.648Z,511.00
2024-01-05T08:02:16.609Z,509.00
2024-01-05T08:03:16.724Z,509.00
2024-01-05T08:04:16.788Z,511.00
2024-01-05T08:05:16.779Z,513.00
2024-01-05T08:06:16.868Z,512.00
2024-01-05T08:07:16.782Z,513.00
2024-01-05T08:08:16.808Z,512.00
2024-01-05T08:09:16.926Z,509.00
2024-01-05T08:10:16.905Z,505.00
2024-01-05T08:11:16.908Z,505.00
2024-01-05T08:12:18.284Z,504.00
2024-01-05T08:13:16.964Z,505.00
2024-01-05T08:14:17.024Z,504.00
2024-01-05T08:15:17.069Z,503.00
2024-01-05T08:16:17.114Z,502.00
2024-01-05T08:17:17.103Z,501.00
2024-01-05T08:18:17.351Z,501.00
2024-01-05T08:19:17.251Z,502.00
2024-01-05T08:20:17.226Z,503.00
2024-01-05T08:21:17.282Z,502.00
2024-01-05T08:22:17.316Z,502.00
2024-01-05T08:23:17.315Z,500.00
2024-01-05T08:24:17.376Z,501.00
2024-01-05T08:25:18.335Z,502.00
2024-01-05T08:26:17.413Z,503.00
2024-01-05T08:27:17.459Z,503.00
2024-01-05T08:28:17.490Z,505.00
2024-01-05T08:29:17.514Z,506.00
2024-01-05T08:30:17.657Z,507.00
2024-01-05T08:31:17.753Z,509.00
2024-01-05T08:32:17.604Z,508.00
2024-01-05T08:33:17.841Z,508.00
2024-01-05T08:34:17.850Z,506.00
2024-01-05T08:35:17.702Z,508.00
2024-01-05T08:36:17.767Z,506.00
2024-01-05T08:37:17.772Z,508.00
2024-01-05T08:38:17.798Z,507.00
2024-01-05T08:39:17.852Z,505.00
2024-01-05T08:40:17.889Z,504.00
2024-01-05T08:41:17.918Z,504.00
2024-01-05T08:42:18.018Z,503.00
2024-01-05T08:43:18.041Z,502.00
2024-01-05T08:44:18.012Z,504.00
2024-01-05T08:45:18.418Z,504.00
2024-01-05T08:46:18.114Z,504.00
2024-01-05T08:47:18.132Z,505.00
2024-01-05T08:48:18.296Z,505.00
2024-01-05T08:49:18.335Z,506.00
2024-01-05T08:50:18.263Z,509.00
2024-01-05T08:51:18.334Z,511.00
2024-01-05T08:52:18.302Z,513.00
2024-01-05T08:53:18.327Z,511.00
2024-01-05T08:54:18.413Z,512.00
2024-01-05T08:55:18.408Z,511.00
2024-01-05T08:56:18.442Z,512.00
2024-01-05T08:57:18.512Z,513.00
2024-01-05T08:58:18.538Z,514.00
2024-01-05T08:59:18.574Z,513.00
2024-01-05T09:00:18.608Z,512.00
2024-01-05T09:01:18.696Z,514.00
2024-01-05T09:02:18.646Z,512.00
2024-01-05T09:03:18.758Z,513.00
2024-01-05T09:04:18.820Z,512.00
2024-01-05T09:05:18.793Z,511.00
2024-01-05T09:06:18.883Z,509.00
2024-01-05T09:07:18.816Z,511.00
2024-01-05T09:08:18.866Z,513.00
2024-01-05T09:09:18.931Z,513.00
2024-01-05T09:10:18.943Z,512.00
2024-01-05T09:11:18.962Z,511.00
2024-01-05T09:12:19.050Z,510.00
2024-01-05T09:13:19.014Z,511.00
2024-01-05T09:14:19.052Z,513.00
2024-01-05T09:15:19.237Z,514.00
2024-01-05T09:16:19.124Z,517.00
2024-01-05T09:17:19.162Z,517.00
2024-01-05T09:18:19.396Z,518.00
2024-01-05T09:19:21.916Z,520.00
2024-01-05T09:20:19.246Z,519.00
2024-01-05T09:21:19.281Z,519.00
2024-01-05T09:22:19.245Z,519.00
2024-01-05T09:23:19.242Z,515.00
2024-01-05T09:24:19.305Z,513.00
2024-01-05T09:25:19.261Z,512.00
2024-01-05T09:26:19.264Z,515.00
2024-01-05T09:27:19.351Z,513.00
2024-01-05T09:28:19.247Z,513.00
2024-01-05T09:29:19.248Z,512.00
2024-01-05T09:30:19.315Z,510.00
2024-01-05T09:31:19.393Z,509.00
2024-01-05T09:32:19.296Z,510.00
2024-01-05T09:33:19.365Z,510.00
2024-01-05T09:34:19.380Z,511.00
2024-01-05T09:35:19.269Z,512.00
2024-01-05T09:36:19.345Z,512.00
2024-01-05T09:37:19.251Z,511.00
2024-01-05T09:38:19.270Z,512.00
2024-01-05T09:39:19.283Z,510.00
2024-01-05T09:40:19.276Z,508.00
2024-01-05T09:41:19.262Z,508.00
2024-01-05T09:42:19.281Z,508.00
2024-01-05T09:43:19.257Z,507.00
2024-01-05T09:44:19.264Z,511.00
2024-01-05T09:45:19.281Z,509.00
2024-01-05T09:46:19.273Z,510.00
2024-01-05T09:47:19.264Z,508.00
2024-01-05T09:48:19.350Z,508.00
2024-01-05T09:49:19.460Z,507.00
2024-01-05T09:50:19.571Z,507.00
2024-01-05T09:51:19.419Z,506.00
2024-01-05T09:52:19.271Z,507.00
2024-01-05T09:53:19.275Z,508.00
2024-01-05T09:54:19.325Z,507.00
2024-01-05T09:55:19.277Z,505.00
2024-01-05T09:56:19.302Z,501.00
2024-01-05T09:57:19.618Z,503.00
2024-01-05T09:58:19.284Z,502.00
2024-01-05T09:59:19.284Z,503.00
2024-01-05T10:00:19.388Z,504.00
2024-01-05T10:01:19.368Z,504.00
2024-01-05T10:02:19.289Z,503.00
2024-01-05T10:03:19.410Z,505.00
2024-01-05T10:04:19.324Z,505.00
2024-01-05T10:05:19.437Z,506.00
2024-01-05T10:06:19.490Z,506.00
2024-01-05T10:07:19.300Z,508.00
2024-01-05T10:08:19.301Z,509.00
2024-01-05T10:09:19.333Z,509.00
2024-01-05T10:10:19.314Z,508.00
2024-01-05T10:11:19.309Z,508.00
2024-01-05T10:12:19.387Z,510.00
2024-01-05T10:13:19.314Z,511.00
2024-01-05T10:14:19.315Z,511.00
2024-01-05T10:15:19.331Z,515.00
2024-01-05T10:16:19.310Z,515.00
2024-01-05T10:17:19.356Z,516.00
2024-01-05T10:18:23.022Z,513.00
2024-01-05T10:19:20.560Z,515.00
2024-01-05T10:20:19.388Z,516.00
2024-01-05T10:21:19.497Z,518.00
2024-01-05T10:22:19.401Z,517.00
2024-01-05T10:23:19.422Z,519.00
2024-01-05T10:24:21.960Z,517.00
2024-01-05T10:25:19.440Z,518.00
2024-01-05T10:26:19.399Z,518.00
2024-01-05T10:27:19.618Z,516.00
2024-01-05T10:28:19.409Z,515.00
2024-01-05T10:29:19.404Z,514.00
2024-01-05T10:30:19.545Z,513.00
2024-01-05T10:31:19.520Z,512.00
2024-01-05T10:32:19.471Z,510.00
2024-01-05T10:33:19.555Z,509.00
2024-01-05T10:34:19.530Z,510.00
2024-01-05T10:35:19.439Z,511.00
2024-01-05T10:36:19.538Z,512.00
2024-01-05T10:37:19.426Z,511.00
2024-01-05T10:38:19.405Z,510.00
2024-01-05T10:39:19.455Z,509.00
2024-01-05T10:40:19.400Z,510.00
2024-01-05T10:41:19.546Z,511.00
2024-01-05T10:42:19.480Z,509.00
2024-01-05T10:43:19.432Z,511.00
2024-01-05T10:44:19.414Z,511.00
2024-01-05T10:45:19.458Z,512.00
2024-01-05T10:46:19.414Z,513.00
2024-01-05T10:47:19.430Z,512.00
2024-01-05T10:48:19.609Z,511.00
2024-01-05T10:49:19.580Z,511.00
2024-01-05T10:50:19.414Z,511.00
2024-01-05T10:51:19.459Z,513.00
2024-01-05T10:52:19.422Z,515.00
2024-01-05T10:53:19.436Z,514.00
2024-01-05T10:54:19.455Z,514.00
2024-01-05T10:55:19.443Z,513.00
2024-01-05T10:56:19.440Z,513.00
2024-01-05T10:57:19.516Z,513.00
2024-01-05T10:59:19.427Z,515.00
2024-01-05T11:00:19.470Z,515.00
2024-01-05T11:01:19.515Z,515.00
2024-01-05T11:02:22.392Z,515.00
2024-01-05T11:03:19.490Z,512.00
2024-01-05T11:04:19.467Z,511.00
2024-01-05T11:05:19.587Z,511.00
2024-01-05T11:06:19.491Z,510.00
2024-01-05T11:07:19.505Z,511.00
2024-01-05T11:08:19.461Z,513.00
2024-01-05T11:09:19.506Z,514.00
2024-01-05T11:10:19.465Z,513.00
2024-01-05T11:11:19.461Z,515.00
2024-01-05T11:12:19.495Z,517.00
2024-01-05T11:13:19.471Z,518.00
2024-01-05T11:14:19.496Z,521.00
2024-01-05T11:15:19.485Z,522.00
2024-01-05T11:16:19.454Z,524.00
2024-01-05T11:17:19.458Z,523.00
2024-01-05T11:18:19.596Z,524.00
2024-01-05T11:19:19.517Z,526.00
2024-01-05T11:20:19.466Z,525.00
2024-01-05T11:21:19.485Z,523.00
2024-01-05T11:22:19.462Z,523.00
2024-01-05T11:23:19.479Z,521.00
2024-01-05T11:24:22.223Z,522.00
2024-01-05T11:25:19.472Z,525.00
2024-01-05T11:26:19.470Z,525.00
2024-01-05T11:27:19.488Z,525.00
2024-01-05T11:28:19.471Z,524.00
2024-01-05T11:29:19.476Z,523.00
2024-01-05T11:30:23.172Z,523.00
2024-01-05T11:31:19.521Z,523.00
2024-01-05T11:32:19.535Z,525.00
2024-01-05T11:33:26.501Z,525.00
2024-01-05T11:34:20.566Z,525.00
2024-01-05T11:35:19.515Z,525.00
2024-01-05T11:36:19.550Z,524.00
2024-01-05T11:37:19.488Z,526.00
2024-01-05T11:38:19.474Z,524.00
2024-01-05T11:39:19.512Z,525.00
2024-01-05T11:40:19.478Z,523.00
2024-01-05T11:41:19.517Z,521.00
2024-01-05T11:42:19.515Z,522.00
2024-01-05T11:43:19.497Z,523.00
2024-01-05T11:44:19.530Z,524.00
2024-01-05T11:45:19.500Z,522.00
2024-01-05T11:46:21.172Z,525.00
2024-01-05T11:47:19.475Z,527.00
2024-01-05T11:48:19.596Z,527.00
2024-01-05T11:49:19.538Z,527.00
2024-01-05T11:50:19.485Z,527.00
2024-01-05T11:51:19.526Z,527.00
2024-01-05T11:52:21.941Z,527.00
2024-01-05T11:53:19.545Z,527.00
2024-01-05T11:54:19.535Z,526.00
2024-01-05T11:55:19.543Z,526.00
2024-01-05T11:56:19.657Z,525.00
2024-01-05T11:57:19.628Z,526.00
2024-01-05T11:58:19.558Z,525.00
2024-01-05T11:59:19.545Z,525.00
2024-01-05T12:00:19.601Z,527.00
2024-01-05T12:01:19.564Z,526.00
2024-01-05T12:02:19.543Z,527.00
2024-01-05T12:03:19.630Z,528.00
2024-01-05T12:04:19.601Z,530.00
2024-01-05T12:05:19.597Z,527.00
2024-01-05T12:06:19.592Z,527.00
2024-01-05T12:07:19.568Z,527.00
2024-01-05T12:08:19.549Z,526.00
2024-01-05T12:09:19.610Z,525.00
2024-01-05T12:10:19.546Z,522.00
2024-01-05T12:11:19.561Z,524.00
2024-01-05T12:12:19.593Z,525.00
2024-01-05T12:13:19.564Z,525.00
2024-01-05T12:14:19.559Z,524.00
2024-01-05T12:15:19.597Z,525.00
2024-01-05T12:16:19.697Z,526.00
2024-01-05T12:17:19.626Z,524.00
2024-01-05T12:18:27.867Z,527.00
2024-01-05T12:19:20.792Z,527.00
2024-01-05T12:20:19.710Z,527.00
2024-01-05T12:21:19.580Z,525.00
2024-01-05T12:22:19.575Z,524.00
2024-01-05T12:23:19.591Z,523.00
2024-01-05T12:24:19.597Z,523.00
2024-01-05T12:25:19.589Z,525.00
2024-01-05T12:26:19.589Z,522.00
2024-01-05T12:27:19.628Z,521.00
2024-01-05T12:28:19.585Z,521.00
2024-01-05T12:29:19.591Z,522.00
2024-01-05T12:30:19.774Z,524.00